Walkerton, Indiana
Current Conditions -  °F | °C
As of 11:15 AM on Thursday 23 Oct 2014 (Local Time) from KOXI Reporting Station
Clear Clear  
Wind Chill: 45°   Ceiling: Unl
Heat Index: 47°   Visibility: 7mi
Dew Point: 41°   Wind: 5mph
Humidity: 79%   Direction: 220°SW
Pressure: 30.24"   Gusts: NA
Location:  41.47°N, 86.48°W
Report Text: KOXI 231515Z AUTO 22004KT 7SM CLR 09/05 A3024 RMK AO1 T00850051
Loading
Personal Weather Stations






























Interactive Weather Map
Tropical Storm Tracking
New forecast layout! Learn more

10-Day Weather Forecast

Advertisements
Track Severe Weather on mobile